Time;durP1;ratioP1;P1;durP2;ratioP2;P2;SDS_P1;SDS_P2;PMS_P1;PMS_P2;Temp;Humidity;BMP_temperature;BMP_pressure;BME280_temperature;BME280_humidity;BME280_pressure;Samples;Min_cycle;Max_cycle;Signal;HPM_P1;HPM_P2
2023/02/26 00:00:29;;;;;;;4.10;1.60;;;;;;;;;;5060368;28;20025;-76
2023/02/26 00:02:55;;;;;;;6.57;1.97;;;;;;;;;;5061869;28;20024;-76
2023/02/26 00:05:21;;;;;;;13.67;1.70;;;;;;;;;;5059348;28;20340;-76
2023/02/26 00:07:47;;;;;;;5.03;1.60;;;;;;;;;;5061455;28;20480;-76
2023/02/26 00:10:16;;;;;;;5.33;1.57;;;;;;;;;;5046027;28;20120;-76
2023/02/26 00:12:42;;;;;;;7.13;1.93;;;;;;;;;;5048037;28;20120;-76
2023/02/26 00:15:12;;;;;;;9.50;1.80;;;;;;;;;;5047043;28;20408;-77
2023/02/26 00:17:49;;;;;;;6.97;2.00;;;;;;;;;;5050796;28;20301;-77
2023/02/26 00:20:15;;;;;;;5.87;1.90;;;;;;;;;;5062010;28;20302;-76
2023/02/26 00:22:42;;;;;;;6.20;1.77;;;;;;;;;;5055446;28;20274;-76
2023/02/26 00:25:08;;;;;;;6.03;1.60;;;;;;;;;;5052389;28;20607;-76
2023/02/26 00:27:35;;;;;;;7.30;1.80;;;;;;;;;;5045034;28;20282;-76
2023/02/26 00:30:01;;;;;;;7.37;1.30;;;;;;;;;;5058866;28;20731;-76
2023/02/26 00:32:27;;;;;;;8.17;1.83;;;;;;;;;;5043442;28;20293;-76
2023/02/26 00:34:53;;;;;;;5.30;1.93;;;;;;;;;;5057982;28;20289;-76
2023/02/26 00:37:38;;;;;;;9.20;2.00;;;;;;;;;;5049648;28;20301;-76
2023/02/26 00:40:09;;;;;;;9.37;1.10;;;;;;;;;;5059086;28;20271;-76
2023/02/26 00:42:35;;;;;;;7.50;1.37;;;;;;;;;;5056648;28;20397;-77
2023/02/26 00:45:02;;;;;;;12.83;2.03;;;;;;;;;;5050989;28;20283;-76
2023/02/26 00:47:36;;;;;;;9.10;1.23;;;;;;;;;;5062386;28;20286;-76
2023/02/26 00:50:01;;;;;;;4.93;1.67;;;;;;;;;;5057874;28;20277;-76
2023/02/26 00:52:37;;;;;;;8.87;2.10;;;;;;;;;;5056842;28;20385;-76
2023/02/26 00:55:03;;;;;;;8.57;1.63;;;;;;;;;;5043914;28;20060;-76
2023/02/26 00:57:29;;;;;;;8.73;1.90;;;;;;;;;;5057633;28;20288;-75
2023/02/26 00:59:58;;;;;;;7.47;1.70;;;;;;;;;;5039083;28;20283;-75
2023/02/26 01:02:26;;;;;;;6.40;1.83;;;;;;;;;;5031784;28;20063;-76
2023/02/26 01:04:52;;;;;;;6.50;1.33;;;;;;;;;;5055215;28;20738;-76
2023/02/26 01:07:23;;;;;;;4.63;1.53;;;;;;;;;;5059811;28;20278;-76
2023/02/26 01:09:49;;;;;;;5.43;1.23;;;;;;;;;;5040145;28;20661;-76
2023/02/26 01:12:16;;;;;;;7.03;2.13;;;;;;;;;;5043533;28;20291;-76
2023/02/26 01:14:43;;;;;;;8.20;1.93;;;;;;;;;;5045504;28;20745;-76
2023/02/26 01:17:20;;;;;;;7.80;1.50;;;;;;;;;;5049402;28;20341;-77
2023/02/26 01:19:46;;;;;;;6.87;2.60;;;;;;;;;;5055518;28;20350;-76
2023/02/26 01:22:15;;;;;;;9.73;2.13;;;;;;;;;;5058645;28;20677;-76
2023/02/26 01:24:41;;;;;;;5.30;1.60;;;;;;;;;;5060056;28;20464;-76
2023/02/26 01:27:08;;;;;;;6.63;1.80;;;;;;;;;;5040487;28;20365;-76
2023/02/26 01:29:34;;;;;;;6.93;2.20;;;;;;;;;;5058152;28;22163;-76
2023/02/26 01:32:12;;;;;;;3.70;1.50;;;;;;;;;;5041023;28;20367;-76
2023/02/26 01:34:41;;;;;;;10.00;1.83;;;;;;;;;;5017451;28;1154992;-76
2023/02/26 01:37:22;;;;;;;8.93;2.37;;;;;;;;;;5041823;28;20025;-76
2023/02/26 01:40:11;;;;;;;10.23;2.10;;;;;;;;;;5049958;28;20335;-76
2023/02/26 01:42:38;;;;;;;10.43;2.77;;;;;;;;;;5009749;28;20311;-76
2023/02/26 01:45:11;;;;;;;7.77;1.80;;;;;;;;;;5050447;28;20359;-76
2023/02/26 01:47:40;;;;;;;7.47;1.50;;;;;;;;;;5058126;28;20282;-76
2023/02/26 01:50:12;;;;;;;5.93;1.80;;;;;;;;;;5047190;28;20033;-77
2023/02/26 01:52:47;;;;;;;8.97;2.17;;;;;;;;;;5051060;28;20386;-77
2023/02/26 01:55:18;;;;;;;5.80;1.90;;;;;;;;;;5059843;28;20785;-77
2023/02/26 01:57:44;;;;;;;7.07;1.87;;;;;;;;;;5060658;28;20310;-76
2023/02/26 02:00:11;;;;;;;6.17;1.57;;;;;;;;;;5049810;28;20290;-77
2023/02/26 02:02:37;;;;;;;5.60;1.57;;;;;;;;;;5056921;28;20282;-75
2023/02/26 02:05:13;;;;;;;10.40;1.70;;;;;;;;;;5039975;28;20337;-76
2023/02/26 02:07:39;;;;;;;5.83;2.13;;;;;;;;;;5061269;28;20291;-77
2023/02/26 02:10:06;;;;;;;5.57;2.87;;;;;;;;;;5044003;28;20282;-76
2023/02/26 02:12:40;;;;;;;8.67;1.90;;;;;;;;;;5045764;28;20337;-76
2023/02/26 02:15:11;;;;;;;8.53;2.17;;;;;;;;;;5039799;28;20283;-76
2023/02/26 02:17:40;;;;;;;5.53;1.57;;;;;;;;;;5057630;28;20354;-76
2023/02/26 02:20:18;;;;;;;9.33;1.83;;;;;;;;;;5057288;28;20642;-76
2023/02/26 02:22:47;;;;;;;6.23;1.83;;;;;;;;;;5055525;28;20626;-76
2023/02/26 02:25:32;;;;;;;6.40;1.73;;;;;;;;;;5058025;28;20275;-77
2023/02/26 02:28:19;;;;;;;6.40;1.90;;;;;;;;;;5055423;28;20287;-77
2023/02/26 02:30:48;;;;;;;9.17;1.80;;;;;;;;;;5061528;28;20279;-77
2023/02/26 02:33:17;;;;;;;5.57;1.90;;;;;;;;;;5057705;28;20648;-77
2023/02/26 02:35:52;;;;;;;4.90;1.90;;;;;;;;;;5057243;28;20287;-76
2023/02/26 02:38:27;;;;;;;4.47;1.70;;;;;;;;;;5043785;28;20301;-76
2023/02/26 02:41:16;;;;;;;8.40;2.43;;;;;;;;;;5048793;28;20321;-77
2023/02/26 02:43:43;;;;;;;3.97;1.90;;;;;;;;;;5044792;28;20340;-77
2023/02/26 02:46:21;;;;;;;4.53;1.57;;;;;;;;;;5077173;28;20746;-76
2023/02/26 02:48:48;;;;;;;6.87;2.23;;;;;;;;;;5046150;28;20283;-77
2023/02/26 02:51:24;;;;;;;9.23;1.97;;;;;;;;;;5048971;28;20659;-77
2023/02/26 02:53:56;;;;;;;7.53;2.33;;;;;;;;;;5050607;28;20329;-77
2023/02/26 02:56:31;;;;;;;5.45;2.45;;;;;;;;;;5057036;28;20251;-77
2023/02/26 02:59:02;;;;;;;5.77;1.40;;;;;;;;;;5043842;28;20059;-77
2023/02/26 03:01:29;;;;;;;6.83;2.03;;;;;;;;;;5061955;28;20271;-76
2023/02/26 03:04:01;;;;;;;7.50;1.97;;;;;;;;;;5053887;28;20271;-77
2023/02/26 03:06:27;;;;;;;4.80;2.08;;;;;;;;;;5045475;28;20831;-77
2023/02/26 03:08:56;;;;;;;11.63;1.57;;;;;;;;;;5042663;28;20449;-77
2023/02/26 03:11:22;;;;;;;5.77;1.20;;;;;;;;;;5054152;28;20286;-77
2023/02/26 03:13:48;;;;;;;5.77;2.17;;;;;;;;;;5070446;28;20263;-77
2023/02/26 03:16:20;;;;;;;10.00;1.70;;;;;;;;;;5074719;28;20259;-77
2023/02/26 03:18:53;;;;;;;7.50;1.95;;;;;;;;;;5047669;28;20255;-77
2023/02/26 03:21:19;;;;;;;;;;;;;;;;;;5043900;28;20032;-77
2023/02/26 03:24:07;;;;;;;9.17;1.90;;;;;;;;;;5043476;28;19935;-77
2023/02/26 03:26:39;;;;;;;7.77;1.70;;;;;;;;;;5055811;28;20028;-77
2023/02/26 03:29:14;;;;;;;9.95;1.98;;;;;;;;;;5054745;28;20278;-76
2023/02/26 03:31:46;;;;;;;7.30;1.83;;;;;;;;;;5051429;28;20044;-77
2023/02/26 03:34:13;;;;;;;5.55;1.50;;;;;;;;;;5056770;28;20307;-77
2023/02/26 03:36:41;;;;;;;9.80;1.40;;;;;;;;;;5054463;28;20028;-77
2023/02/26 03:39:07;;;;;;;4.57;1.37;;;;;;;;;;5050673;28;20719;-77
2023/02/26 03:41:40;;;;;;;6.27;1.60;;;;;;;;;;5058459;28;20349;-77
2023/02/26 03:44:06;;;;;;;;;;;;;;;;;;5056636;28;20472;-77
2023/02/26 03:46:37;;;;;;;7.60;1.80;;;;;;;;;;5056511;28;19987;-77
2023/02/26 03:49:06;;;;;;;3.60;1.20;;;;;;;;;;5041992;28;20046;-77
2023/02/26 03:51:33;;;;;;;7.93;1.70;;;;;;;;;;5054573;28;20258;-77
2023/02/26 03:54:16;;;;;;;4.73;1.20;;;;;;;;;;5054080;28;20283;-77
2023/02/26 03:56:44;;;;;;;4.18;1.45;;;;;;;;;;5050807;28;20263;-77
2023/02/26 03:59:10;;;;;;;7.00;2.00;;;;;;;;;;5056517;28;20418;-76
2023/02/26 04:01:51;;;;;;;6.70;1.70;;;;;;;;;;5064032;28;20336;-77
2023/02/26 04:04:21;;;;;;;8.23;1.60;;;;;;;;;;5071417;28;20658;-77
2023/02/26 04:06:47;;;;;;;3.63;1.33;;;;;;;;;;5049525;28;20271;-77
2023/02/26 04:09:13;;;;;;;6.60;1.40;;;;;;;;;;5054063;28;20263;-77
2023/02/26 04:11:39;;;;;;;6.70;1.20;;;;;;;;;;5053972;28;20362;-77
2023/02/26 04:14:05;;;;;;;6.97;1.70;;;;;;;;;;5043419;28;20302;-77
2023/02/26 04:16:31;;;;;;;4.33;0.97;;;;;;;;;;5051466;28;20263;-77
2023/02/26 04:18:57;;;;;;;5.47;1.17;;;;;;;;;;5040678;28;20810;-77
2023/02/26 04:21:23;;;;;;;4.07;1.30;;;;;;;;;;5038537;28;20029;-77
2023/02/26 04:23:49;;;;;;;3.97;1.00;;;;;;;;;;5040668;28;20028;-77
2023/02/26 04:26:15;;;;;;;6.63;1.20;;;;;;;;;;5059632;28;20095;-77
2023/02/26 04:28:41;;;;;;;5.07;1.37;;;;;;;;;;5042061;28;20025;-76
2023/02/26 04:31:09;;;;;;;5.27;1.50;;;;;;;;;;5047522;28;20036;-77
2023/02/26 04:33:35;;;;;;;5.03;1.17;;;;;;;;;;5042768;28;20345;-77
2023/02/26 04:36:01;;;;;;;5.30;1.23;;;;;;;;;;5058616;28;20283;-77
2023/02/26 04:38:27;;;;;;;7.73;1.17;;;;;;;;;;5048347;28;20033;-77
2023/02/26 04:40:53;;;;;;;7.27;1.43;;;;;;;;;;5058490;28;20307;-77
2023/02/26 04:43:19;;;;;;;8.23;1.93;;;;;;;;;;5043125;28;20326;-77
2023/02/26 04:45:46;;;;;;;2.73;1.10;;;;;;;;;;5052355;28;20813;-76
2023/02/26 04:48:12;;;;;;;4.03;1.50;;;;;;;;;;5058115;28;20526;-77
2023/02/26 04:50:38;;;;;;;10.27;1.47;;;;;;;;;;5050818;28;20334;-77
2023/02/26 04:53:05;;;;;;;7.57;1.20;;;;;;;;;;5059820;28;20303;-77
2023/02/26 04:55:31;;;;;;;7.90;1.30;;;;;;;;;;5041429;28;20268;-77
2023/02/26 04:57:57;;;;;;;7.13;1.10;;;;;;;;;;5050501;28;20276;-77
2023/02/26 05:00:24;;;;;;;3.03;1.17;;;;;;;;;;5041988;28;21828;-77
2023/02/26 05:02:52;;;;;;;9.37;1.43;;;;;;;;;;5059175;28;20827;-77
2023/02/26 05:05:18;;;;;;;5.40;1.17;;;;;;;;;;5061032;28;20276;-77
2023/02/26 05:07:44;;;;;;;6.13;1.00;;;;;;;;;;5060619;28;20294;-76
2023/02/26 05:10:10;;;;;;;11.27;1.93;;;;;;;;;;5059232;28;20289;-77
2023/02/26 05:12:37;;;;;;;4.30;1.00;;;;;;;;;;5057916;28;20291;-76
2023/02/26 05:15:03;;;;;;;4.87;1.40;;;;;;;;;;5041914;28;20354;-76
2023/02/26 05:17:29;;;;;;;4.43;1.37;;;;;;;;;;5040282;28;20301;-77
2023/02/26 05:19:55;;;;;;;6.63;1.77;;;;;;;;;;5060089;28;20719;-77
2023/02/26 05:22:21;;;;;;;4.47;1.53;;;;;;;;;;5043384;28;20040;-77
2023/02/26 05:24:47;;;;;;;5.10;1.43;;;;;;;;;;5059262;28;20111;-77
2023/02/26 05:27:16;;;;;;;4.87;1.07;;;;;;;;;;5040999;28;20378;-76
2023/02/26 05:29:43;;;;;;;3.63;1.50;;;;;;;;;;5047932;28;20049;-77
2023/02/26 05:32:09;;;;;;;4.20;1.47;;;;;;;;;;5059336;28;20296;-77
2023/02/26 05:34:35;;;;;;;4.33;1.07;;;;;;;;;;5058502;28;20286;-77
2023/02/26 05:37:02;;;;;;;5.00;1.27;;;;;;;;;;5040885;28;20887;-77
2023/02/26 05:39:28;;;;;;;5.63;1.20;;;;;;;;;;5057246;28;20821;-76
2023/02/26 05:41:55;;;;;;;7.07;1.37;;;;;;;;;;5055853;28;20275;-77
2023/02/26 05:44:22;;;;;;;6.90;1.40;;;;;;;;;;5042755;28;20429;-77
2023/02/26 05:46:50;;;;;;;9.20;1.50;;;;;;;;;;5040070;28;20275;-77
2023/02/26 05:49:16;;;;;;;5.30;0.97;;;;;;;;;;5059432;28;20718;-77
2023/02/26 05:51:42;;;;;;;3.30;1.00;;;;;;;;;;5045661;28;20306;-77
2023/02/26 05:54:10;;;;;;;2.70;1.00;;;;;;;;;;5045638;28;20025;-76
2023/02/26 05:56:36;;;;;;;3.97;0.90;;;;;;;;;;5058262;28;20275;-77
2023/02/26 05:59:03;;;;;;;9.33;1.23;;;;;;;;;;5058918;28;20276;-76
2023/02/26 06:01:31;;;;;;;7.73;1.53;;;;;;;;;;5043176;28;20826;-77
2023/02/26 06:03:57;;;;;;;3.93;1.10;;;;;;;;;;5042490;28;20263;-77
2023/02/26 06:06:24;;;;;;;8.70;1.53;;;;;;;;;;5041248;28;20295;-77
2023/02/26 06:08:50;;;;;;;6.50;1.20;;;;;;;;;;5056990;28;20032;-77
2023/02/26 06:11:16;;;;;;;6.57;1.40;;;;;;;;;;5057632;28;20299;-77
2023/02/26 06:13:44;;;;;;;4.40;1.00;;;;;;;;;;5045022;28;20291;-77
2023/02/26 06:16:10;;;;;;;6.07;1.30;;;;;;;;;;5047768;28;20036;-77
2023/02/26 06:18:36;;;;;;;6.53;1.60;;;;;;;;;;5060724;28;20317;-77
2023/02/26 06:21:02;;;;;;;3.07;1.17;;;;;;;;;;5046519;28;20039;-77
2023/02/26 06:23:28;;;;;;;5.70;1.40;;;;;;;;;;5041710;28;20256;-77
2023/02/26 06:25:54;;;;;;;6.00;1.30;;;;;;;;;;5060048;28;20271;-77
2023/02/26 06:28:23;;;;;;;6.67;1.67;;;;;;;;;;5043735;28;20283;-77
2023/02/26 06:30:49;;;;;;;9.27;1.53;;;;;;;;;;5044637;28;20295;-75
2023/02/26 06:33:15;;;;;;;6.20;1.50;;;;;;;;;;5040824;28;20288;-76
2023/02/26 06:35:41;;;;;;;10.47;1.50;;;;;;;;;;5042428;28;20658;-77
2023/02/26 06:38:07;;;;;;;6.30;1.70;;;;;;;;;;5059370;28;20408;-77
2023/02/26 06:40:33;;;;;;;2.53;1.20;;;;;;;;;;5057500;28;20866;-77
2023/02/26 06:43:01;;;;;;;6.77;1.50;;;;;;;;;;5055062;28;20067;-77
2023/02/26 06:45:27;;;;;;;7.53;1.73;;;;;;;;;;5057945;28;20037;-77
2023/02/26 06:47:53;;;;;;;5.50;1.30;;;;;;;;;;5041634;28;20285;-77
2023/02/26 06:50:19;;;;;;;7.57;1.47;;;;;;;;;;5042472;28;20445;-77
2023/02/26 06:52:45;;;;;;;8.40;1.70;;;;;;;;;;5055896;28;20062;-77
2023/02/26 06:55:12;;;;;;;6.83;1.50;;;;;;;;;;5062782;28;20769;-77
2023/02/26 06:57:38;;;;;;;6.60;1.70;;;;;;;;;;5061679;28;20725;-77
2023/02/26 07:00:05;;;;;;;6.20;2.03;;;;;;;;;;5040255;28;20744;-76
2023/02/26 07:02:31;;;;;;;5.17;1.57;;;;;;;;;;5056861;28;20044;-77
2023/02/26 07:04:57;;;;;;;10.13;1.47;;;;;;;;;;5056142;28;20346;-77
2023/02/26 07:07:23;;;;;;;4.60;1.40;;;;;;;;;;5057241;28;20043;-77
2023/02/26 07:09:49;;;;;;;4.63;1.77;;;;;;;;;;5048826;28;20041;-76
2023/02/26 07:12:15;;;;;;;4.13;1.63;;;;;;;;;;5062060;28;20290;-76
2023/02/26 07:14:44;;;;;;;6.83;2.50;;;;;;;;;;5042809;28;20039;-77
2023/02/26 07:17:19;;;;;;;4.47;1.60;;;;;;;;;;5041910;28;20275;-76
2023/02/26 07:20:05;;;;;;;21.53;2.23;;;;;;;;;;5040883;28;20267;-77
2023/02/26 07:22:31;;;;;;;9.80;2.30;;;;;;;;;;5043604;28;20290;-77
2023/02/26 07:24:59;;;;;;;4.30;1.83;;;;;;;;;;5056304;28;20388;-77
2023/02/26 07:27:25;;;;;;;6.70;1.80;;;;;;;;;;5057291;28;20421;-77
2023/02/26 07:29:51;;;;;;;6.03;1.80;;;;;;;;;;5040649;28;20275;-77
2023/02/26 07:32:17;;;;;;;4.63;1.70;;;;;;;;;;5054621;28;20287;-77
2023/02/26 07:34:43;;;;;;;4.90;2.00;;;;;;;;;;5057300;28;20033;-77
2023/02/26 07:37:11;;;;;;;5.80;1.73;;;;;;;;;;5057650;28;20440;-76
2023/02/26 07:39:39;;;;;;;3.20;1.73;;;;;;;;;;5043682;28;20029;-77
2023/02/26 07:42:05;;;;;;;9.73;1.90;;;;;;;;;;5040372;28;20394;-77
2023/02/26 07:44:31;;;;;;;4.93;1.80;;;;;;;;;;5055336;28;21988;-77
2023/02/26 07:47:00;;;;;;;4.87;1.53;;;;;;;;;;5039505;28;20362;-77
2023/02/26 07:49:26;;;;;;;4.90;1.73;;;;;;;;;;5056002;28;20021;-77
2023/02/26 07:51:52;;;;;;;5.07;2.43;;;;;;;;;;5049134;28;20295;-77
2023/02/26 07:54:18;;;;;;;5.87;1.97;;;;;;;;;;5042835;28;20374;-77
2023/02/26 07:56:44;;;;;;;6.90;2.87;;;;;;;;;;5044626;28;20280;-77
2023/02/26 07:59:10;;;;;;;3.63;1.50;;;;;;;;;;5038450;28;20282;-77
2023/02/26 08:01:37;;;;;;;3.50;1.80;;;;;;;;;;5042621;28;20083;-77
2023/02/26 08:04:03;;;;;;;12.13;2.40;;;;;;;;;;5060450;28;20698;-77
2023/02/26 08:06:29;;;;;;;4.67;1.83;;;;;;;;;;5059617;28;20292;-77
2023/02/26 08:08:58;;;;;;;3.97;1.97;;;;;;;;;;5059504;28;20369;-77
2023/02/26 08:11:24;;;;;;;11.20;2.37;;;;;;;;;;5044261;28;20275;-77
2023/02/26 08:13:50;;;;;;;6.27;1.80;;;;;;;;;;5060343;28;20306;-77
2023/02/26 08:16:16;;;;;;;5.70;1.87;;;;;;;;;;5059517;28;20288;-76
2023/02/26 08:18:42;;;;;;;8.33;2.30;;;;;;;;;;5061365;28;20143;-77
2023/02/26 08:21:08;;;;;;;2.90;1.73;;;;;;;;;;5060611;28;20739;-77
2023/02/26 08:23:34;;;;;;;4.60;1.77;;;;;;;;;;5060724;28;20275;-77
2023/02/26 08:26:03;;;;;;;7.17;2.00;;;;;;;;;;5046889;28;20468;-77
2023/02/26 08:28:29;;;;;;;4.60;1.90;;;;;;;;;;5059846;28;20322;-75
2023/02/26 08:30:55;;;;;;;4.27;1.93;;;;;;;;;;5042956;28;20290;-76
2023/02/26 08:33:24;;;;;;;5.93;1.70;;;;;;;;;;5043330;28;20291;-77
2023/02/26 08:35:50;;;;;;;7.13;2.40;;;;;;;;;;5042025;28;20284;-76
2023/02/26 08:38:17;;;;;;;7.37;2.57;;;;;;;;;;5063245;28;20789;-77
2023/02/26 08:40:43;;;;;;;12.50;2.50;;;;;;;;;;5043456;28;20259;-77
2023/02/26 08:43:10;;;;;;;4.93;1.97;;;;;;;;;;5051893;28;20587;-77
2023/02/26 08:45:36;;;;;;;7.50;2.00;;;;;;;;;;5084567;28;20345;-77
2023/02/26 08:48:02;;;;;;;6.13;1.80;;;;;;;;;;5047638;28;20280;-77
2023/02/26 08:50:28;;;;;;;4.20;2.00;;;;;;;;;;5066837;28;20352;-78
2023/02/26 08:52:54;;;;;;;7.37;1.83;;;;;;;;;;5067982;28;20290;-77
2023/02/26 08:55:21;;;;;;;4.83;1.63;;;;;;;;;;5060503;28;20337;-77
2023/02/26 08:57:47;;;;;;;6.13;1.90;;;;;;;;;;5081491;28;20620;-78
2023/02/26 09:00:20;;;;;;;4.83;1.37;;;;;;;;;;5066241;28;20260;-77
2023/02/26 09:02:48;;;;;;;7.15;1.80;;;;;;;;;;5062126;28;20909;-77
2023/02/26 09:05:15;;;;;;;10.33;3.00;;;;;;;;;;5062234;28;21202;-76
2023/02/26 09:07:41;;;;;;;11.60;1.60;;;;;;;;;;5072207;28;20285;-78
2023/02/26 09:10:07;;;;;;;5.10;1.70;;;;;;;;;;5079546;28;20305;-77
2023/02/26 09:12:35;;;;;;;3.73;1.37;;;;;;;;;;5056139;28;20283;-77
2023/02/26 09:15:03;;;;;;;6.73;1.43;;;;;;;;;;5054598;28;20300;-77
2023/02/26 09:17:29;;;;;;;5.57;1.40;;;;;;;;;;5054190;28;20274;-77
2023/02/26 09:19:55;;;;;;;5.83;1.10;;;;;;;;;;5060453;28;20352;-78
2023/02/26 09:22:23;;;;;;;3.87;1.47;;;;;;;;;;5044365;28;21071;-77
2023/02/26 09:24:51;;;;;;;5.20;1.53;;;;;;;;;;5053348;28;20025;-77
2023/02/26 09:27:17;;;;;;;7.27;1.77;;;;;;;;;;5084400;28;20282;-77
2023/02/26 09:29:43;;;;;;;4.53;1.10;;;;;;;;;;5049750;28;20275;-77
2023/02/26 09:32:12;;;;;;;8.30;1.50;;;;;;;;;;5074728;28;20356;-78
2023/02/26 09:34:40;;;;;;;7.27;1.30;;;;;;;;;;5057258;28;20293;-77
2023/02/26 09:37:11;;;;;;;5.87;1.70;;;;;;;;;;5051097;28;20275;-77
2023/02/26 09:39:37;;;;;;;3.60;1.00;;;;;;;;;;5066316;28;20298;-77
2023/02/26 09:42:06;;;;;;;5.10;1.00;;;;;;;;;;5055104;28;20289;-77
2023/02/26 09:44:35;;;;;;;2.07;1.30;;;;;;;;;;5050978;28;20299;-77
2023/02/26 09:47:01;;;;;;;1.73;1.00;;;;;;;;;;5056390;28;20279;-78
2023/02/26 09:49:30;;;;;;;7.67;3.40;;;;;;;;;;5049112;28;20739;-78
2023/02/26 09:51:59;;;;;;;2.37;1.17;;;;;;;;;;5059093;28;20047;-78
2023/02/26 09:54:28;;;;;;;6.83;1.77;;;;;;;;;;5058611;28;20278;-78
2023/02/26 09:56:56;;;;;;;4.47;0.93;;;;;;;;;;5055189;28;20275;-79
2023/02/26 09:59:24;;;;;;;2.87;1.00;;;;;;;;;;5060029;28;20262;-78
2023/02/26 10:01:58;;;;;;;4.47;1.90;;;;;;;;;;5055829;28;20298;-77
2023/02/26 10:04:43;;;;;;;5.53;1.20;;;;;;;;;;5057299;28;20339;-77
2023/02/26 10:07:09;;;;;;;5.90;0.97;;;;;;;;;;5058839;28;20291;-78
2023/02/26 10:09:38;;;;;;;4.13;1.00;;;;;;;;;;5061066;28;20333;-77
2023/02/26 10:12:13;;;;;;;3.47;0.90;;;;;;;;;;5061443;28;20316;-77
2023/02/26 10:14:57;;;;;;;4.80;1.47;;;;;;;;;;5054270;28;20283;-78
2023/02/26 10:17:43;;;;;;;3.83;0.73;;;;;;;;;;5051709;28;20647;-78
2023/02/26 10:20:39;;;;;;;4.17;1.00;;;;;;;;;;5042073;28;20702;-76
2023/02/26 10:23:08;;;;;;;3.17;0.93;;;;;;;;;;5034690;28;20382;-77
2023/02/26 10:25:40;;;;;;;3.80;0.90;;;;;;;;;;5040752;28;20377;-76
2023/02/26 10:28:28;;;;;;;3.20;0.93;;;;;;;;;;5055574;28;20323;-76
2023/02/26 10:30:57;;;;;;;1.63;0.60;;;;;;;;;;5058370;28;20029;-78
2023/02/26 10:33:29;;;;;;;1.20;0.70;;;;;;;;;;5039489;28;20284;-78
2023/02/26 10:35:58;;;;;;;4.35;1.00;;;;;;;;;;5058520;28;20283;-77
2023/02/26 10:38:30;;;;;;;5.90;0.80;;;;;;;;;;5043245;28;20445;-77
2023/02/26 10:41:01;;;;;;;2.17;0.85;;;;;;;;;;5039226;28;20271;-78
2023/02/26 10:43:33;;;;;;;2.60;0.80;;;;;;;;;;5056783;28;20040;-78
2023/02/26 10:45:59;;;;;;;;;;;;;;;;;;5041462;28;20655;-77
2023/02/26 10:48:25;;;;;;;5.53;1.43;;;;;;;;;;5060675;28;19916;-77
2023/02/26 10:50:53;;;;;;;3.33;0.70;;;;;;;;;;5058753;28;20094;-78
2023/02/26 10:53:20;;;;;;;6.07;0.97;;;;;;;;;;5044945;28;20287;-78
2023/02/26 10:55:49;;;;;;;4.93;0.80;;;;;;;;;;5045029;28;20332;-78
2023/02/26 10:58:25;;;;;;;1.50;0.57;;;;;;;;;;5058621;28;20279;-77
2023/02/26 11:00:55;;;;;;;4.40;0.90;;;;;;;;;;5058552;28;20275;-78
2023/02/26 11:03:21;;;;;;;2.30;0.60;;;;;;;;;;5040798;28;20282;-79
2023/02/26 11:05:49;;;;;;;3.27;0.80;;;;;;;;;;5059063;28;20288;-77
2023/02/26 11:08:23;;;;;;;3.67;0.70;;;;;;;;;;5042384;28;20518;-79
2023/02/26 11:10:49;;;;;;;1.70;0.70;;;;;;;;;;5040710;28;20336;-78
2023/02/26 11:13:15;;;;;;;3.53;1.10;;;;;;;;;;5039848;28;20037;-76
2023/02/26 11:15:42;;;;;;;2.50;0.90;;;;;;;;;;5059601;28;20155;-79
2023/02/26 11:18:12;;;;;;;7.87;1.53;;;;;;;;;;5043213;28;20032;-78
2023/02/26 11:20:39;;;;;;;1.70;0.80;;;;;;;;;;5056794;28;20441;-78
2023/02/26 11:23:06;;;;;;;6.70;1.20;;;;;;;;;;5046480;28;20029;-79
2023/02/26 11:25:33;;;;;;;5.40;0.83;;;;;;;;;;5042529;28;20078;-79
2023/02/26 11:28:01;;;;;;;3.67;1.10;;;;;;;;;;5049697;28;20033;-78
2023/02/26 11:30:29;;;;;;;2.10;0.60;;;;;;;;;;5057122;28;20064;-77
2023/02/26 11:32:57;;;;;;;3.27;0.77;;;;;;;;;;5056384;28;20024;-77
2023/02/26 11:35:25;;;;;;;3.13;0.90;;;;;;;;;;5042577;28;20075;-77
2023/02/26 11:38:02;;;;;;;3.23;0.90;;;;;;;;;;5061361;28;20927;-78
2023/02/26 11:40:37;;;;;;;4.50;0.73;;;;;;;;;;5045524;28;20070;-76
2023/02/26 11:43:15;;;;;;;2.40;0.87;;;;;;;;;;5060621;28;20029;-76
2023/02/26 11:45:43;;;;;;;2.80;0.50;;;;;;;;;;5041962;28;20094;-77
2023/02/26 11:48:22;;;;;;;1.87;0.60;;;;;;;;;;5060134;28;20037;-77
2023/02/26 11:50:51;;;;;;;3.30;1.30;;;;;;;;;;5044558;28;20052;-77
2023/02/26 11:53:37;;;;;;;1.60;0.50;;;;;;;;;;5062350;28;20032;-78
2023/02/26 11:56:07;;;;;;;2.23;0.90;;;;;;;;;;5061110;28;20115;-79
2023/02/26 11:58:38;;;;;;;8.03;0.90;;;;;;;;;;5046582;28;20037;-79
2023/02/26 12:01:05;;;;;;;1.40;0.50;;;;;;;;;;5058997;28;20029;-78
2023/02/26 12:03:33;;;;;;;2.23;0.77;;;;;;;;;;5057677;28;20032;-78
2023/02/26 12:06:03;;;;;;;2.27;0.70;;;;;;;;;;5045179;28;20389;-79
2023/02/26 12:08:39;;;;;;;1.83;0.60;;;;;;;;;;5057519;28;20108;-79
2023/02/26 12:11:17;;;;;;;3.47;0.53;;;;;;;;;;5045218;28;20037;-79
2023/02/26 12:13:46;;;;;;;2.43;0.60;;;;;;;;;;5050797;28;20036;-79
2023/02/26 12:16:30;;;;;;;1.70;0.70;;;;;;;;;;5043197;28;20098;-78
2023/02/26 12:19:03;;;;;;;2.87;0.60;;;;;;;;;;5043848;28;20417;-78
2023/02/26 12:21:38;;;;;;;6.20;0.70;;;;;;;;;;5058113;28;20032;-79
2023/02/26 12:24:10;;;;;;;2.10;0.50;;;;;;;;;;5058043;28;20079;-78
2023/02/26 12:26:41;;;;;;;4.93;0.80;;;;;;;;;;5061227;28;20078;-77
2023/02/26 12:29:07;;;;;;;2.10;0.60;;;;;;;;;;5060740;28;20035;-77
2023/02/26 12:31:52;;;;;;;8.00;1.13;;;;;;;;;;5059500;28;20092;-77
2023/02/26 12:34:21;;;;;;;2.03;0.60;;;;;;;;;;5061133;28;20127;-77
2023/02/26 12:36:56;;;;;;;1.60;0.60;;;;;;;;;;5060377;28;20361;-78
2023/02/26 12:39:25;;;;;;;1.40;0.70;;;;;;;;;;5057074;28;20040;-75
2023/02/26 12:41:57;;;;;;;2.17;0.50;;;;;;;;;;5061688;28;20032;-76
2023/02/26 12:44:45;;;;;;;1.40;0.80;;;;;;;;;;5061129;28;20068;-78
2023/02/26 12:47:11;;;;;;;3.10;0.70;;;;;;;;;;5042148;28;20049;-79
2023/02/26 12:49:46;;;;;;;5.77;0.90;;;;;;;;;;5060617;28;20028;-78
2023/02/26 12:52:25;;;;;;;3.93;0.80;;;;;;;;;;5060186;28;20484;-76
2023/02/26 12:54:50;;;;;;;3.33;0.67;;;;;;;;;;5060760;28;20354;-76
2023/02/26 12:57:23;;;;;;;2.67;0.80;;;;;;;;;;5059035;28;20421;-77
2023/02/26 12:59:59;;;;;;;2.78;1.38;;;;;;;;;;5041364;28;20368;-76
2023/02/26 13:02:25;;;;;;;2.90;0.70;;;;;;;;;;5058363;28;20032;-78
2023/02/26 13:04:51;;;;;;;4.50;0.90;;;;;;;;;;5047246;28;20282;-77
2023/02/26 13:07:36;;;;;;;1.47;0.53;;;;;;;;;;5060093;28;20029;-77
2023/02/26 13:10:25;;;;;;;2.63;0.63;;;;;;;;;;5060330;28;20056;-77
2023/02/26 13:13:01;;;;;;;4.77;1.10;;;;;;;;;;5056775;28;20070;-77
2023/02/26 13:15:38;;;;;;;3.00;1.10;;;;;;;;;;5049733;28;20032;-77
2023/02/26 13:18:27;;;;;;;2.50;0.60;;;;;;;;;;5059401;28;20029;-77
2023/02/26 13:20:59;;;;;;;3.17;0.57;;;;;;;;;;5062216;28;20024;-76
2023/02/26 13:23:27;;;;;;;1.98;0.50;;;;;;;;;;5057341;28;20052;-77
2023/02/26 13:26:00;;;;;;;3.43;0.77;;;;;;;;;;5059781;28;20041;-77
2023/02/26 13:28:25;;;;;;;;;;;;;;;;;;5064468;28;20032;-77
2023/02/26 13:30:53;;;;;;;4.43;1.60;;;;;;;;;;5042074;28;19984;-78
2023/02/26 13:33:21;;;;;;;2.10;0.57;;;;;;;;;;5040619;28;20036;-78
2023/02/26 13:35:48;;;;;;;1.53;0.70;;;;;;;;;;5047073;28;20028;-77
2023/02/26 13:38:17;;;;;;;5.03;0.70;;;;;;;;;;5057046;28;20039;-77
2023/02/26 13:40:46;;;;;;;2.03;0.60;;;;;;;;;;5056810;28;20083;-78
2023/02/26 13:43:12;;;;;;;1.43;0.70;;;;;;;;;;5056686;28;20083;-78
2023/02/26 13:45:57;;;;;;;2.80;0.67;;;;;;;;;;5041148;28;20032;-78
2023/02/26 13:48:34;;;;;;;0.90;0.40;;;;;;;;;;5041683;28;20032;-77
2023/02/26 13:51:05;;;;;;;1.43;0.50;;;;;;;;;;5056170;28;20123;-78
2023/02/26 13:53:37;;;;;;;6.33;0.50;;;;;;;;;;5038960;28;20226;-77
2023/02/26 13:56:14;;;;;;;3.83;1.55;;;;;;;;;;5059842;28;20498;-75
2023/02/26 13:58:41;;;;;;;3.07;0.70;;;;;;;;;;5058731;28;20124;-78
2023/02/26 14:01:10;;;;;;;2.10;0.90;;;;;;;;;;5041510;28;20072;-76
2023/02/26 14:03:36;;;;;;;3.13;0.80;;;;;;;;;;5057688;28;20031;-77
2023/02/26 14:06:10;;;;;;;2.33;0.90;;;;;;;;;;5041958;28;20033;-77
2023/02/26 14:08:39;;;;;;;3.47;0.77;;;;;;;;;;5040158;28;20449;-75
2023/02/26 14:11:23;;;;;;;2.60;0.50;;;;;;;;;;5057595;28;20041;-76
2023/02/26 14:14:07;;;;;;;2.10;0.93;;;;;;;;;;5047188;28;20036;-79
2023/02/26 14:16:34;;;;;;;5.30;1.40;;;;;;;;;;5044857;28;20037;-77
2023/02/26 14:19:23;;;;;;;3.13;0.50;;;;;;;;;;5059084;28;20139;-77
2023/02/26 14:21:51;;;;;;;2.27;0.83;;;;;;;;;;5041323;28;20017;-77
2023/02/26 14:24:36;;;;;;;4.63;0.80;;;;;;;;;;5040970;28;20033;-75
2023/02/26 14:27:08;;;;;;;4.67;0.43;;;;;;;;;;5054553;28;20103;-78
2023/02/26 14:29:41;;;;;;;4.90;0.50;;;;;;;;;;5038010;28;20082;-79
2023/02/26 14:32:10;;;;;;;5.10;1.30;;;;;;;;;;5040187;28;20037;-77
2023/02/26 14:34:49;;;;;;;4.87;1.40;;;;;;;;;;5058161;28;20056;-78
2023/02/26 14:37:17;;;;;;;2.03;0.70;;;;;;;;;;5039350;28;20091;-77
2023/02/26 14:39:46;;;;;;;1.93;0.63;;;;;;;;;;5054582;28;20362;-77
2023/02/26 14:42:18;;;;;;;2.17;0.73;;;;;;;;;;5060781;28;20098;-76
2023/02/26 14:44:46;;;;;;;0.52;0.32;;;;;;;;;;5047335;28;20032;-79
2023/02/26 14:47:12;;;;;;;2.43;0.60;;;;;;;;;;5057734;28;20460;-78
2023/02/26 14:49:40;;;;;;;3.67;0.57;;;;;;;;;;5044476;28;20111;-79
2023/02/26 14:52:21;;;;;;;1.97;0.60;;;;;;;;;;5070637;28;20057;-79
2023/02/26 14:55:06;;;;;;;0.93;0.37;;;;;;;;;;5067372;28;20021;-78
2023/02/26 14:57:39;;;;;;;2.07;1.00;;;;;;;;;;5051211;28;20127;-79